Terminal Aerodrome Forecast
Issued by NWS

Home | Current Version | Previous Version | Text Only | Print | Product List | Glossary On
Versions: 1 2 3 4 5 6 7 8 9 10 11 12 13 14 15 16 17 18 19 20 21 22 23 24 25
000
FTUS43 KLSX 212124 AAE
TAFSUS
TAF AMD
KSUS 212124Z 2121/2218 VRB03KT P6SM OVC020
     FM220000 01004KT P6SM SCT035
     FM220900 00000KT 3/4SM BR FEW080
     FM221100 00000KT 1/2SM FG FEW015
     FM221500 VRB03KT 3SM BR BKN015
     FM221700 21005KT P6SM FEW120=

USA.gov is the U.S. government's official web portal to all federal, state and local government web resources and services.